createdAt,value
2019-06-01T00:01:55.624Z,100208.34
2019-06-01T00:04:24.052Z,100204.73
2019-06-01T00:06:52.476Z,100206.47
2019-06-01T00:09:20.898Z,100204.66
2019-06-01T00:11:49.642Z,100205.09
2019-06-01T00:14:18.200Z,100205.94
2019-06-01T00:16:47.913Z,100205.03
2019-06-01T00:19:17.321Z,100206.86
2019-06-01T00:21:45.747Z,100203.80
2019-06-01T00:24:14.605Z,100202.95
2019-06-01T00:26:43.679Z,100195.02
2019-06-01T00:29:12.391Z,100192.40
2019-06-01T00:31:41.256Z,100192.34
2019-06-01T00:34:09.758Z,100191.41
2019-06-01T00:36:38.154Z,100193.95
2019-06-01T00:39:07.442Z,100190.80
2019-06-01T00:41:35.866Z,100192.96
2019-06-01T00:44:04.523Z,100189.83
2019-06-01T00:46:33.291Z,100185.41
2019-06-01T00:49:01.699Z,100185.80
2019-06-01T00:51:30.463Z,100189.28
2019-06-01T00:53:59.259Z,100186.61
2019-06-01T00:56:27.677Z,100182.18
2019-06-01T00:58:56.415Z,100188.34
2019-06-01T01:01:24.832Z,100192.27
2019-06-01T01:03:54.448Z,100188.75
2019-06-01T01:06:22.926Z,100186.52
2019-06-01T01:08:51.348Z,100186.96
2019-06-01T01:11:19.942Z,100184.72
2019-06-01T01:13:49.230Z,100193.50
2019-06-01T01:16:17.658Z,100197.02
2019-06-01T01:18:47.630Z,100187.34
2019-06-01T01:21:16.420Z,100188.66
2019-06-01T01:23:46.103Z,100187.30
2019-06-01T01:26:14.626Z,100191.20
2019-06-01T01:28:43.030Z,100196.85
2019-06-01T01:31:14.103Z,100193.72
2019-06-01T01:33:41.607Z,100188.83
2019-06-01T01:36:10.017Z,100189.66
2019-06-01T01:38:38.495Z,100197.55
2019-06-01T01:41:06.912Z,100195.77
2019-06-01T01:43:35.313Z,100197.98
2019-06-01T01:46:04.778Z,100195.30
2019-06-01T01:48:33.179Z,100197.03
2019-06-01T01:51:02.740Z,100197.46
2019-06-01T01:53:31.188Z,100203.14
2019-06-01T01:55:59.615Z,100197.84
2019-06-01T01:58:28.022Z,100202.26
2019-06-01T02:00:58.374Z,100200.45
2019-06-01T02:03:26.584Z,100203.09
2019-06-01T02:05:55.005Z,100205.27
2019-06-01T02:08:23.719Z,100199.94
2019-06-01T02:10:53.319Z,100202.58
2019-06-01T02:13:21.865Z,100203.45
2019-06-01T02:15:52.065Z,100200.73
2019-06-01T02:18:20.428Z,100200.55
2019-06-01T02:20:48.831Z,100204.38
2019-06-01T02:23:17.261Z,100198.64
2019-06-01T02:25:45.668Z,100194.70
2019-06-01T02:28:14.073Z,100197.79
2019-06-01T02:30:42.482Z,100188.98
2019-06-01T02:33:10.905Z,100189.83
2019-06-01T02:35:39.311Z,100186.75
2019-06-01T02:38:07.764Z,100188.94
2019-06-01T02:40:36.489Z,100183.67
2019-06-01T02:43:06.911Z,100185.39
2019-06-01T02:45:35.429Z,100181.42
2019-06-01T02:48:04.489Z,100179.14
2019-06-01T02:50:34.065Z,100176.03
2019-06-01T02:53:03.589Z,100175.52
2019-06-01T02:55:32.056Z,100172.39
2019-06-01T02:58:00.552Z,100179.86
2019-06-01T03:00:40.885Z,100179.36
2019-06-01T03:03:09.376Z,100178.42
2019-06-01T03:05:38.214Z,100181.46
2019-06-01T03:08:07.860Z,100179.22
2019-06-01T03:10:38.033Z,100181.84
2019-06-01T03:13:08.771Z,100184.89
2019-06-01T03:15:40.224Z,100185.79
2019-06-01T03:18:11.846Z,100182.26
2019-06-01T03:20:41.284Z,100182.23
2019-06-01T03:23:12.093Z,100182.95
2019-06-01T03:25:41.413Z,100180.70
2019-06-01T03:28:13.162Z,100178.45
2019-06-01T03:30:45.382Z,100176.30
2019-06-01T03:33:14.161Z,100168.29
2019-06-01T03:35:43.308Z,100170.03
2019-06-01T03:38:11.723Z,100170.41
2019-06-01T03:40:40.293Z,100177.39
2019-06-01T03:43:09.392Z,100176.41
2019-06-01T03:45:37.928Z,100173.77
2019-06-01T03:48:06.737Z,100174.70
2019-06-01T03:50:35.235Z,100177.72
2019-06-01T03:53:03.937Z,100173.70
2019-06-01T03:55:32.303Z,100175.41
2019-06-01T03:58:00.986Z,100170.12
2019-06-01T04:00:29.402Z,100174.45
2019-06-01T04:02:57.807Z,100169.11
2019-06-01T04:05:26.208Z,100176.16
2019-06-01T04:07:54.599Z,100178.48
2019-06-01T04:10:23.025Z,100178.54
2019-06-01T04:12:51.429Z,100180.91
2019-06-01T04:15:19.846Z,100186.70
2019-06-01T04:17:48.602Z,100187.23
2019-06-01T04:20:17.180Z,100183.38
2019-06-01T04:22:45.587Z,100196.20
2019-06-01T04:25:13.998Z,100195.79
2019-06-01T04:27:42.395Z,100195.80
2019-06-01T04:30:11.553Z,100197.22
2019-06-01T04:32:49.517Z,100196.50
2019-06-01T04:35:11.116Z,100197.53
2019-06-01T04:37:39.552Z,100203.11
2019-06-01T04:40:08.036Z,100199.94
2019-06-01T04:42:36.445Z,100202.98
2019-06-01T04:45:08.926Z,100210.16
2019-06-01T04:47:37.164Z,100201.93
2019-06-01T04:50:08.612Z,100199.05
2019-06-01T04:52:37.277Z,100196.04
2019-06-01T04:55:09.189Z,100194.75
2019-06-01T04:57:37.508Z,100199.20
2019-06-01T05:00:12.711Z,100194.84
2019-06-01T05:02:37.739Z,100190.19
2019-06-01T05:05:07.226Z,100186.30
2019-06-01T05:07:35.934Z,100183.24
2019-06-01T05:10:07.303Z,100187.69
2019-06-01T05:12:35.951Z,100186.84
2019-06-01T05:15:07.609Z,100184.23
2019-06-01T05:17:36.096Z,100188.64
2019-06-01T05:20:06.363Z,100195.25
2019-06-01T05:22:34.725Z,100200.16
2019-06-01T05:25:03.455Z,100202.33
2019-06-01T05:27:32.017Z,100200.98
2019-06-01T05:30:00.421Z,100207.47
2019-06-01T05:32:28.909Z,100200.34
2019-06-01T05:34:57.310Z,100196.69
2019-06-01T05:37:25.719Z,100198.38
2019-06-01T05:39:54.126Z,100200.86
2019-06-01T05:42:22.537Z,100196.34
2019-06-01T05:44:50.955Z,100199.38
2019-06-01T05:47:19.392Z,100204.16
2019-06-01T05:49:47.803Z,100198.31
2019-06-01T05:52:16.692Z,100205.77
2019-06-01T05:54:45.195Z,100209.20
2019-06-01T05:57:14.690Z,100206.02
2019-06-01T05:59:43.108Z,100198.39
2019-06-01T06:02:11.526Z,100202.21
2019-06-01T06:04:39.925Z,100204.22
2019-06-01T06:07:08.343Z,100201.85
2019-06-01T06:09:36.787Z,100207.00
2019-06-01T06:12:05.178Z,100197.45
2019-06-01T06:14:33.590Z,100195.59
2019-06-01T06:17:02.003Z,100184.89
2019-06-01T06:19:30.472Z,100188.29
2019-06-01T06:21:58.897Z,100183.66
2019-06-01T06:24:27.305Z,100187.58
2019-06-01T06:26:55.716Z,100189.87
2019-06-01T06:29:24.114Z,100187.60
2019-06-01T06:31:52.536Z,100185.55
2019-06-01T06:34:21.647Z,100188.20
2019-06-01T06:36:50.043Z,100185.49
2019-06-01T06:39:18.488Z,100187.75
2019-06-01T06:41:46.887Z,100179.92
2019-06-01T06:44:16.329Z,100185.46
2019-06-01T06:46:44.800Z,100177.61
2019-06-01T06:49:13.198Z,100179.52
2019-06-01T06:51:41.594Z,100179.58
2019-06-01T06:54:10.086Z,100174.53
2019-06-01T06:56:38.513Z,100177.23
2019-06-01T06:59:06.923Z,100176.41
2019-06-01T07:01:35.386Z,100176.60
2019-06-01T07:04:12.684Z,100181.41
2019-06-01T07:06:34.127Z,100172.98
2019-06-01T07:09:02.713Z,100168.15
2019-06-01T07:11:31.536Z,100167.30
2019-06-01T07:14:00.012Z,100159.64
2019-06-01T07:16:28.446Z,100162.73
2019-06-01T07:18:57.110Z,100165.90
2019-06-01T07:21:25.850Z,100162.72
2019-06-01T07:23:54.680Z,100161.77
2019-06-01T07:26:24.122Z,100159.86
2019-06-01T07:28:52.591Z,100159.37
2019-06-01T07:31:22.057Z,100153.27
2019-06-01T07:33:50.589Z,100157.52
2019-06-01T07:36:20.174Z,100157.48
2019-06-01T07:38:49.079Z,100155.39
2019-06-01T07:41:17.824Z,100157.02
2019-06-01T07:43:46.605Z,100161.52
2019-06-01T07:46:15.003Z,100155.33
2019-06-01T07:48:43.670Z,100163.27
2019-06-01T07:51:12.075Z,100158.81
2019-06-01T07:53:40.501Z,100161.09
2019-06-01T07:56:09.207Z,100158.06
2019-06-01T07:58:37.642Z,100157.56
2019-06-01T08:01:06.062Z,100156.36
2019-06-01T08:03:35.097Z,100150.44
2019-06-01T08:06:03.672Z,100151.27
2019-06-01T08:08:32.077Z,100137.30
2019-06-01T08:11:00.492Z,100137.30
2019-06-01T08:13:32.239Z,100140.72
2019-06-01T08:15:59.651Z,100137.72
2019-06-01T08:18:28.233Z,100139.33
2019-06-01T08:20:56.744Z,100134.66
2019-06-01T08:23:26.177Z,100138.02
2019-06-01T08:25:54.550Z,100134.24
2019-06-01T08:28:22.947Z,100133.42
2019-06-01T08:30:51.379Z,100131.98
2019-06-01T08:33:19.782Z,100134.39
2019-06-01T08:35:48.221Z,100134.06
2019-06-01T08:38:16.602Z,100131.78
2019-06-01T08:40:45.091Z,100129.97
2019-06-01T08:43:14.386Z,100123.35
2019-06-01T08:45:42.804Z,100117.66
2019-06-01T08:48:12.206Z,100115.23
2019-06-01T08:50:40.649Z,100112.83
2019-06-01T08:53:09.057Z,100113.45
2019-06-01T08:55:37.479Z,100115.54
2019-06-01T08:58:05.875Z,100111.69
2019-06-01T09:00:34.744Z,100109.27
2019-06-01T09:03:03.187Z,100105.84
2019-06-01T09:05:31.641Z,100104.26
2019-06-01T09:08:00.007Z,100095.58
2019-06-01T09:10:29.235Z,100098.31
2019-06-01T09:12:57.623Z,100091.28
2019-06-01T09:15:27.457Z,100090.55
2019-06-01T09:17:56.048Z,100092.16
2019-06-01T09:20:25.479Z,100084.70
2019-06-01T09:22:53.987Z,100090.62
2019-06-01T09:25:22.396Z,100088.95
2019-06-01T09:27:50.833Z,100082.63
2019-06-01T09:30:19.476Z,100080.31
2019-06-01T09:32:47.877Z,100075.50
2019-06-01T09:35:16.370Z,100081.50
2019-06-01T09:37:45.828Z,100074.19
2019-06-01T09:40:16.063Z,100078.52
2019-06-01T09:42:44.490Z,100079.36
2019-06-01T09:45:13.433Z,100078.98
2019-06-01T09:47:41.832Z,100075.80
2019-06-01T09:50:10.616Z,100070.17
2019-06-01T09:52:39.009Z,100070.32
2019-06-01T09:55:07.966Z,100074.13
2019-06-01T09:57:38.353Z,100066.00
2019-06-01T10:00:09.815Z,100062.95
2019-06-01T10:02:38.369Z,100069.11
2019-06-01T10:05:07.363Z,100074.93
2019-06-01T10:07:37.023Z,100068.48
2019-06-01T10:10:09.370Z,100069.57
2019-06-01T10:12:38.194Z,100068.61
2019-06-01T10:15:07.478Z,100070.00
2019-06-01T10:17:37.053Z,100059.71
2019-06-01T10:20:07.195Z,100058.48
2019-06-01T10:22:35.599Z,100058.37
2019-06-01T10:25:07.909Z,100055.28
2019-06-01T10:27:36.781Z,100053.98
2019-06-01T10:30:09.055Z,100061.08
2019-06-01T10:32:37.992Z,100060.48
2019-06-01T10:35:07.886Z,100057.86
2019-06-01T10:37:37.612Z,100056.98
2019-06-01T10:40:07.099Z,100055.80
2019-06-01T10:42:36.078Z,100053.67
2019-06-01T10:45:06.387Z,100053.80
2019-06-01T10:47:38.042Z,100041.32
2019-06-01T10:50:07.419Z,100044.95
2019-06-01T10:52:36.281Z,100039.33
2019-06-01T10:55:06.920Z,100041.36
2019-06-01T10:57:36.621Z,100040.15
2019-06-01T11:00:12.120Z,100035.28
2019-06-01T11:02:40.920Z,100032.66
2019-06-01T11:05:09.861Z,100033.98
2019-06-01T11:07:39.082Z,100033.66
2019-06-01T11:10:08.598Z,100034.95
2019-06-01T11:12:37.022Z,100029.73
2019-06-01T11:15:07.086Z,100024.13
2019-06-01T11:17:35.598Z,100021.97
2019-06-01T11:20:06.937Z,100014.44
2019-06-01T11:22:35.659Z,100008.61
2019-06-01T11:25:05.425Z,100013.09
2019-06-01T11:27:35.502Z,100004.14
2019-06-01T11:30:09.280Z,100003.37
2019-06-01T11:32:39.478Z,100001.31
2019-06-01T11:35:09.718Z,100002.78
2019-06-01T11:37:38.479Z,99996.77
2019-06-01T11:40:07.746Z,99993.51
2019-06-01T11:42:36.900Z,99991.08
2019-06-01T11:45:09.988Z,99987.27
2019-06-01T11:47:38.876Z,99990.16
2019-06-01T11:50:07.645Z,99982.84
2019-06-01T11:52:37.061Z,99981.56
2019-06-01T11:55:09.993Z,99975.91
2019-06-01T11:57:39.494Z,99977.05
2019-06-01T12:00:15.569Z,99965.95
2019-06-01T12:02:43.980Z,99968.73
2019-06-01T12:05:13.069Z,99963.30
2019-06-01T12:07:41.949Z,99963.23
2019-06-01T12:10:12.342Z,99962.22
2019-06-01T12:12:42.234Z,99962.41
2019-06-01T12:15:11.376Z,99958.64
2019-06-01T12:17:40.664Z,99950.61
2019-06-01T12:20:09.864Z,99955.27
2019-06-01T12:22:38.807Z,99950.52
2019-06-01T12:25:07.667Z,99946.80
2019-06-01T12:27:37.196Z,99950.39
2019-06-01T12:30:09.919Z,99942.83
2019-06-01T12:32:38.318Z,99939.00
2019-06-01T12:35:08.959Z,99938.95
2019-06-01T12:37:58.388Z,99934.52
2019-06-01T12:40:08.258Z,99935.58
2019-06-01T12:42:36.653Z,99934.33
2019-06-01T12:45:10.119Z,99927.36
2019-06-01T12:47:39.789Z,99923.01
2019-06-01T12:50:08.417Z,99918.98
2019-06-01T12:52:37.186Z,99922.75
2019-06-01T12:55:06.941Z,99917.34
2019-06-01T12:57:35.419Z,99912.09
2019-06-01T13:00:08.687Z,99911.66
2019-06-01T13:02:37.936Z,99907.62
2019-06-01T13:05:07.069Z,99908.48
2019-06-01T13:07:51.002Z,99906.64
2019-06-01T13:10:07.403Z,99909.41
2019-06-01T13:12:36.088Z,99907.34
2019-06-01T13:15:06.529Z,99901.30
2019-06-01T13:17:34.937Z,99896.88
2019-06-01T13:20:07.806Z,99896.22
2019-06-01T13:22:36.283Z,99889.86
2019-06-01T13:25:06.526Z,99890.62
2019-06-01T13:27:35.365Z,99890.78
2019-06-01T13:30:08.101Z,99886.90
2019-06-01T13:32:36.523Z,99878.67
2019-06-01T13:35:09.016Z,99875.66
2019-06-01T13:37:37.709Z,99874.13
2019-06-01T13:40:07.450Z,99867.72
2019-06-01T13:42:35.863Z,99864.95
2019-06-01T13:45:09.095Z,99865.38
2019-06-01T13:47:37.507Z,99864.09
2019-06-01T13:50:07.319Z,99859.83
2019-06-01T13:52:35.936Z,99853.77
2019-06-01T13:55:06.167Z,99848.68
2019-06-01T13:57:34.573Z,99841.39
2019-06-01T14:00:04.581Z,99839.14
2019-06-01T14:02:32.991Z,99837.30
2019-06-01T14:05:01.399Z,99835.81
2019-06-01T14:07:29.804Z,99834.33
2019-06-01T14:09:58.209Z,99835.83
2019-06-01T14:12:26.616Z,99830.38
2019-06-01T14:14:55.614Z,99835.45
2019-06-01T14:17:24.128Z,99832.22
2019-06-01T14:19:53.722Z,99829.00
2019-06-01T14:22:22.251Z,99826.41
2019-06-01T14:25:06.443Z,99832.48
2019-06-01T14:27:20.805Z,99825.67
2019-06-01T14:29:50.280Z,99825.27
2019-06-01T14:32:18.739Z,99818.06
2019-06-01T14:34:48.500Z,99814.61
2019-06-01T14:37:17.045Z,99814.56
2019-06-01T14:39:46.654Z,99817.09
2019-06-01T14:42:15.125Z,99813.27
2019-06-01T14:44:43.539Z,99805.02
2019-06-01T14:47:18.461Z,99812.67
2019-06-01T14:49:44.755Z,99800.53
2019-06-01T14:52:13.169Z,99798.27
2019-06-01T14:54:41.581Z,99795.53
2019-06-01T14:57:09.991Z,99796.01
2019-06-01T14:59:38.734Z,99801.28
2019-06-01T15:02:07.131Z,99795.74
2019-06-01T15:04:35.586Z,99793.73
2019-06-01T15:07:04.397Z,99791.52
2019-06-01T15:09:32.818Z,99794.81
2019-06-01T15:12:01.230Z,99791.09
2019-06-01T15:14:29.640Z,99789.91
2019-06-01T15:16:58.039Z,99786.46
2019-06-01T15:19:26.455Z,99779.66
2019-06-01T15:21:56.106Z,99784.38
2019-06-01T15:24:24.749Z,99782.56
2019-06-01T15:26:54.564Z,99779.66
2019-06-01T15:29:23.061Z,99770.56
2019-06-01T15:31:51.453Z,99770.42
2019-06-01T15:34:19.855Z,99768.33
2019-06-01T15:36:48.257Z,99769.55
2019-06-01T15:39:24.584Z,99765.20
2019-06-01T15:41:46.808Z,99756.77
2019-06-01T15:44:15.224Z,99755.84
2019-06-01T15:46:43.633Z,99750.23
2019-06-01T15:49:12.048Z,99741.91
2019-06-01T15:51:40.441Z,99737.72
2019-06-01T15:54:08.863Z,99737.02
2019-06-01T15:56:37.262Z,99736.87
2019-06-01T15:59:05.674Z,99727.19
2019-06-01T16:01:34.151Z,99737.62
2019-06-01T16:04:03.421Z,99730.73
2019-06-01T16:06:31.952Z,99730.78
2019-06-01T16:09:01.666Z,99728.66
2019-06-01T16:11:30.260Z,99731.47
2019-06-01T16:13:59.793Z,99728.77
2019-06-01T16:16:28.359Z,99727.55
2019-06-01T16:19:02.370Z,99724.74
2019-06-01T16:21:26.895Z,99723.40
2019-06-01T16:23:56.272Z,99726.33
2019-06-01T16:26:24.800Z,99721.58
2019-06-01T16:28:54.347Z,99723.41
2019-06-01T16:31:22.898Z,99721.89
2019-06-01T16:33:51.289Z,99714.92
2019-06-01T16:36:19.721Z,99718.24
2019-06-01T16:38:48.119Z,99721.75
2019-06-01T16:41:16.555Z,99721.00
2019-06-01T16:43:44.954Z,99727.17
2019-06-01T16:46:13.382Z,99721.75
2019-06-01T16:48:41.874Z,99723.61
2019-06-01T16:51:10.270Z,99729.24
2019-06-01T16:53:38.921Z,99726.84
2019-06-01T16:56:07.589Z,99721.63
2019-06-01T16:58:35.985Z,99726.84
2019-06-01T17:01:05.099Z,99717.97
2019-06-01T17:03:33.558Z,99724.61
2019-06-01T17:06:02.875Z,99711.83
2019-06-01T17:08:31.350Z,99710.16
2019-06-01T17:11:00.700Z,99707.88
2019-06-01T17:13:29.065Z,99704.84
2019-06-01T17:15:58.826Z,99701.09
2019-06-01T17:18:27.412Z,99701.98
2019-06-01T17:20:57.253Z,99705.22
2019-06-01T17:23:27.790Z,99698.75
2019-06-01T17:25:55.927Z,99700.72
2019-06-01T17:28:24.326Z,99701.30
2019-06-01T17:30:52.753Z,99696.38
2019-06-01T17:33:21.166Z,99703.84
2019-06-01T17:35:49.564Z,99693.82
2019-06-01T17:38:17.985Z,99701.02
2019-06-01T17:40:46.397Z,99697.39
2019-06-01T17:43:14.904Z,99694.52
2019-06-01T17:45:43.360Z,99692.02
2019-06-01T17:48:24.686Z,99686.26
2019-06-01T17:50:41.960Z,99689.27
2019-06-01T17:53:10.364Z,99684.73
2019-06-01T17:55:39.509Z,99681.86
2019-06-01T17:58:10.005Z,99681.28
2019-06-01T18:00:38.888Z,99679.38
2019-06-01T18:03:07.970Z,99679.78
2019-06-01T18:05:37.055Z,99683.49
2019-06-01T18:08:06.586Z,99680.45
2019-06-01T18:10:52.039Z,99679.34
2019-06-01T18:13:06.785Z,99680.62
2019-06-01T18:15:35.639Z,99681.34
2019-06-01T18:18:06.368Z,99680.89
2019-06-01T18:20:35.722Z,99680.14
2019-06-01T18:23:05.655Z,99681.13
2019-06-01T18:25:34.721Z,99684.41
2019-06-01T18:28:04.423Z,99682.77
2019-06-01T18:30:32.947Z,99680.16
2019-06-01T18:33:02.813Z,99680.84
2019-06-01T18:35:32.408Z,99681.48
2019-06-01T18:38:01.104Z,99679.16
2019-06-01T18:40:29.765Z,99678.77
2019-06-01T18:43:01.236Z,99684.56
2019-06-01T18:45:30.204Z,99677.38
2019-06-01T18:47:58.756Z,99680.86
2019-06-01T18:50:27.289Z,99687.56
2019-06-01T18:52:56.079Z,99681.91
2019-06-01T18:55:27.481Z,99682.25
2019-06-01T18:57:57.834Z,99677.41
2019-06-01T19:00:26.379Z,99681.04
2019-06-01T19:02:54.852Z,99680.20
2019-06-01T19:05:23.278Z,99678.44
2019-06-01T19:07:51.688Z,99675.27
2019-06-01T19:10:21.474Z,99678.05
2019-06-01T19:12:49.869Z,99677.23
2019-06-01T19:15:28.019Z,99678.30
2019-06-01T19:17:48.947Z,99673.37
2019-06-01T19:20:17.796Z,99677.87
2019-06-01T19:22:46.218Z,99677.47
2019-06-01T19:25:15.067Z,99683.52
2019-06-01T19:27:43.478Z,99679.01
2019-06-01T19:30:13.026Z,99688.49
2019-06-01T19:32:41.884Z,99686.91
2019-06-01T19:35:11.599Z,99689.37
2019-06-01T19:37:42.423Z,99687.44
2019-06-01T19:40:11.434Z,99687.08
2019-06-01T19:42:39.854Z,99683.58
2019-06-01T19:45:22.539Z,99686.92
2019-06-01T19:47:39.411Z,99692.06
2019-06-01T19:50:08.769Z,99695.30
2019-06-01T19:52:37.656Z,99703.92
2019-06-01T19:55:06.990Z,99692.53
2019-06-01T19:57:35.397Z,99696.69
2019-06-01T20:00:06.582Z,99702.47
2019-06-01T20:02:35.220Z,99707.83
2019-06-01T20:05:03.687Z,99703.36
2019-06-01T20:07:32.108Z,99709.80
2019-06-01T20:10:00.515Z,99706.81
2019-06-01T20:12:29.155Z,99709.64
2019-06-01T20:14:57.948Z,99713.09
2019-06-01T20:17:26.744Z,99709.73
2019-06-01T20:19:55.268Z,99707.13
2019-06-01T20:22:23.653Z,99706.47
2019-06-01T20:24:52.067Z,99708.89
2019-06-01T20:27:21.592Z,99711.09
2019-06-01T20:29:50.051Z,99711.84
2019-06-01T20:32:18.459Z,99714.03
2019-06-01T20:34:48.031Z,99710.42
2019-06-01T20:37:16.454Z,99717.20
2019-06-01T20:39:44.841Z,99714.21
2019-06-01T20:42:22.289Z,99711.47
2019-06-01T20:44:43.714Z,99709.52
2019-06-01T20:47:14.600Z,99707.38
2019-06-01T20:49:42.266Z,99701.81
2019-06-01T20:52:10.698Z,99703.96
2019-06-01T20:54:39.101Z,99705.29
2019-06-01T20:57:07.542Z,99701.73
2019-06-01T20:59:35.935Z,99701.36
2019-06-01T21:02:04.531Z,99703.95
2019-06-01T21:04:32.915Z,99701.95
2019-06-01T21:07:01.332Z,99704.30
2019-06-01T21:09:29.753Z,99707.61
2019-06-01T21:11:58.186Z,99706.44
2019-06-01T21:14:26.634Z,99709.42
2019-06-01T21:16:55.058Z,99709.77
2019-06-01T21:19:24.491Z,99714.82
2019-06-01T21:21:52.966Z,99714.42
2019-06-01T21:24:23.014Z,99713.80
2019-06-01T21:26:51.560Z,99711.02
2019-06-01T21:29:20.908Z,99723.86
2019-06-01T21:31:49.365Z,99722.30
2019-06-01T21:34:20.464Z,99722.44
2019-06-01T21:36:47.887Z,99721.23
2019-06-01T21:39:17.525Z,99720.66
2019-06-01T21:41:46.256Z,99723.59
2019-06-01T21:44:15.399Z,99719.41
2019-06-01T21:46:43.847Z,99717.41
2019-06-01T21:49:12.505Z,99717.72
2019-06-01T21:51:41.035Z,99709.58
2019-06-01T21:54:09.469Z,99713.41
2019-06-01T21:56:37.861Z,99711.03
2019-06-01T21:59:06.285Z,99701.94
2019-06-01T22:01:34.925Z,99705.33
2019-06-01T22:04:03.412Z,99701.52
2019-06-01T22:06:31.826Z,99701.20
2019-06-01T22:09:00.238Z,99695.48
2019-06-01T22:11:28.908Z,99693.45
2019-06-01T22:13:57.335Z,99697.09
2019-06-01T22:16:25.853Z,99700.61
2019-06-01T22:18:54.321Z,99692.53
2019-06-01T22:21:23.833Z,99692.53
2019-06-01T22:23:52.327Z,99692.68
2019-06-01T22:26:21.904Z,99692.50
2019-06-01T22:28:50.433Z,99690.53
2019-06-01T22:31:20.105Z,99687.99
2019-06-01T22:33:48.663Z,99684.77
2019-06-01T22:36:17.037Z,99684.77
2019-06-01T22:38:45.434Z,99682.72
2019-06-01T22:41:13.841Z,99684.36
2019-06-01T22:43:46.798Z,99691.67
2019-06-01T22:46:12.369Z,99688.34
2019-06-01T22:48:40.796Z,99688.09
2019-06-01T22:51:09.187Z,99693.88
2019-06-01T22:53:37.589Z,99698.36
2019-06-01T22:56:06.279Z,99693.09
2019-06-01T22:58:34.689Z,99688.34
2019-06-01T23:01:03.271Z,99695.43
2019-06-01T23:03:32.162Z,99691.77
2019-06-01T23:06:00.662Z,99694.81
2019-06-01T23:08:29.544Z,99691.81
2019-06-01T23:10:58.385Z,99689.32
2019-06-01T23:13:28.099Z,99687.70
2019-06-01T23:15:56.593Z,99686.96
2019-06-01T23:18:25.639Z,99688.33
2019-06-01T23:20:54.098Z,99686.21
2019-06-01T23:23:23.622Z,99680.07
2019-06-01T23:25:52.374Z,99680.19
2019-06-01T23:28:21.941Z,99674.09
2019-06-01T23:30:50.733Z,99679.41
2019-06-01T23:33:19.142Z,99677.65
2019-06-01T23:35:47.565Z,99675.09
2019-06-01T23:38:15.961Z,99678.73
2019-06-01T23:40:44.428Z,99676.11
2019-06-01T23:43:12.869Z,99673.03
2019-06-01T23:45:41.261Z,99675.06
2019-06-01T23:48:09.687Z,99668.73
2019-06-01T23:50:38.094Z,99672.26
2019-06-01T23:53:13.591Z,99667.02
2019-06-01T23:55:36.663Z,99667.62
2019-06-01T23:58:05.127Z,99670.84
